createdAt,value
2018-05-03T00:00:40.645Z,22
2018-05-03T00:01:49.636Z,22.02
2018-05-03T00:02:59.383Z,21.99
2018-05-03T00:04:09.400Z,22
2018-05-03T00:05:18.901Z,21.98
2018-05-03T00:06:28.941Z,21.96
2018-05-03T00:07:38.128Z,21.98
2018-05-03T00:08:47.827Z,21.96
2018-05-03T00:09:56.984Z,22.03
2018-05-03T00:11:05.881Z,21.96
2018-05-03T00:12:15.564Z,21.96
2018-05-03T00:13:24.993Z,21.96
2018-05-03T00:14:34.415Z,21.94
2018-05-03T00:15:43.817Z,22.02
2018-05-03T00:16:53.746Z,22.03
2018-05-03T00:18:02.911Z,22
2018-05-03T00:19:12.361Z,21.98
2018-05-03T00:20:22.059Z,22.02
2018-05-03T00:21:31.475Z,22.02
2018-05-03T00:22:40.916Z,22
2018-05-03T00:23:50.347Z,22.03
2018-05-03T00:24:59.486Z,21.98
2018-05-03T00:26:09.188Z,21.94
2018-05-03T00:27:18.677Z,22
2018-05-03T00:28:27.867Z,21.88
2018-05-03T00:29:37.026Z,22.02
2018-05-03T00:30:46.448Z,21.9
2018-05-03T00:31:56.128Z,22.03
2018-05-03T00:33:05.536Z,21.98
2018-05-03T00:34:14.705Z,21.98
2018-05-03T00:35:23.928Z,21.99
2018-05-03T00:36:33.599Z,21.92
2018-05-03T00:37:42.248Z,22
2018-05-03T00:38:51.172Z,21.94
2018-05-03T00:40:00.599Z,21.99
2018-05-03T00:41:10.009Z,21.9
2018-05-03T00:42:19.793Z,21.94
2018-05-03T00:43:29.455Z,21.99
2018-05-03T00:44:39.394Z,21.96
2018-05-03T00:45:49.321Z,21.99
2018-05-03T00:46:58.488Z,21.99
2018-05-03T00:48:07.660Z,22.03
2018-05-03T00:49:16.575Z,21.91
2018-05-03T00:50:25.759Z,21.99
2018-05-03T00:51:34.919Z,21.99
2018-05-03T00:52:44.347Z,21.94
2018-05-03T00:53:54.284Z,21.99
2018-05-03T00:55:03.717Z,21.88
2018-05-03T00:56:12.885Z,21.9
2018-05-03T00:57:22.046Z,21.98
2018-05-03T00:58:31.712Z,21.96
2018-05-03T00:59:41.433Z,21.94
2018-05-03T01:00:51.111Z,21.99
2018-05-03T01:02:00.787Z,21.96
2018-05-03T01:03:10.734Z,21.96
2018-05-03T01:04:19.922Z,21.99
2018-05-03T01:05:28.842Z,22
2018-05-03T01:06:37.993Z,21.96
2018-05-03T01:07:47.153Z,21.91
2018-05-03T01:08:56.330Z,21.96
2018-05-03T01:10:05.487Z,21.82
2018-05-03T01:11:14.906Z,21.99
2018-05-03T01:12:23.595Z,21.96
2018-05-03T01:13:33.012Z,21.99
2018-05-03T01:14:42.191Z,21.94
2018-05-03T01:15:51.872Z,22.02
2018-05-03T01:17:01.033Z,22.03
2018-05-03T01:18:10.201Z,21.96
2018-05-03T01:19:18.903Z,21.96
2018-05-03T01:20:28.327Z,21.86
2018-05-03T01:21:38.020Z,21.98
2018-05-03T01:22:47.727Z,21.9
2018-05-03T01:23:57.150Z,21.96
2018-05-03T01:25:06.044Z,21.92
2018-05-03T01:26:14.936Z,21.9
2018-05-03T01:27:24.364Z,21.9
2018-05-03T01:28:34.314Z,22
2018-05-03T01:29:43.756Z,21.9
2018-05-03T01:30:52.929Z,21.94
2018-05-03T01:32:02.411Z,21.91
2018-05-03T01:33:11.835Z,21.88
2018-05-03T01:34:21.518Z,21.96
2018-05-03T01:35:30.946Z,21.92
2018-05-03T01:36:40.628Z,21.88
2018-05-03T01:37:49.799Z,21.94
2018-05-03T01:38:59.203Z,21.92
2018-05-03T01:40:08.621Z,21.91
2018-05-03T01:41:17.813Z,21.94
2018-05-03T01:42:27.248Z,21.94
2018-05-03T01:43:36.931Z,21.91
2018-05-03T01:44:46.359Z,21.9
2018-05-03T01:45:55.516Z,21.99
2018-05-03T01:47:04.685Z,21.91
2018-05-03T01:48:14.104Z,21.84
2018-05-03T01:49:23.519Z,21.88
2018-05-03T01:50:32.678Z,21.94
2018-05-03T01:51:42.088Z,21.96
2018-05-03T01:52:50.996Z,21.88
2018-05-03T01:54:00.844Z,21.91
2018-05-03T01:55:10.548Z,21.94
2018-05-03T01:56:19.992Z,21.91
2018-05-03T01:57:29.937Z,21.91
2018-05-03T01:58:39.640Z,21.94
2018-05-03T01:59:48.802Z,21.88
2018-05-03T02:00:58.724Z,21.94
2018-05-03T02:02:07.879Z,21.83
2018-05-03T02:03:17.307Z,21.98
2018-05-03T02:04:26.487Z,21.83
2018-05-03T02:05:35.942Z,21.9
2018-05-03T02:06:44.839Z,21.91
2018-05-03T02:07:54.000Z,21.92
2018-05-03T02:09:03.421Z,21.91
2018-05-03T02:10:12.582Z,21.94
2018-05-03T02:11:21.489Z,21.92
2018-05-03T02:12:30.654Z,21.9
2018-05-03T02:13:39.552Z,21.91
2018-05-03T02:14:49.229Z,21.9
2018-05-03T02:15:58.384Z,21.88
2018-05-03T02:17:07.852Z,21.83
2018-05-03T02:18:17.537Z,21.9
2018-05-03T02:19:27.463Z,21.91
2018-05-03T02:20:36.642Z,21.86
2018-05-03T02:21:46.315Z,21.91
2018-05-03T02:22:55.227Z,21.91
2018-05-03T02:24:04.630Z,21.86
2018-05-03T02:25:13.790Z,21.92
2018-05-03T02:26:23.537Z,21.84
2018-05-03T02:27:33.482Z,21.88
2018-05-03T02:28:42.643Z,21.92
2018-05-03T02:29:51.322Z,21.98
2018-05-03T02:31:00.505Z,21.91
2018-05-03T02:32:10.033Z,21.91
2018-05-03T02:33:19.202Z,21.92
2018-05-03T02:34:29.290Z,21.8
2018-05-03T02:35:38.995Z,21.92
2018-05-03T02:36:47.888Z,21.9
2018-05-03T02:37:57.309Z,21.96
2018-05-03T02:39:06.499Z,21.91
2018-05-03T02:40:16.210Z,21.82
2018-05-03T02:41:25.893Z,21.9
2018-05-03T02:42:35.065Z,21.9
2018-05-03T02:43:44.743Z,21.83
2018-05-03T02:44:54.151Z,21.86
2018-05-03T02:46:03.881Z,21.91
2018-05-03T02:47:13.061Z,21.82
2018-05-03T02:48:22.268Z,21.9
2018-05-03T02:49:31.720Z,21.86
2018-05-03T02:50:41.182Z,21.92
2018-05-03T02:51:50.854Z,21.9
2018-05-03T02:53:00.549Z,21.79
2018-05-03T02:54:09.987Z,21.79
2018-05-03T02:55:19.166Z,21.92
2018-05-03T02:56:28.891Z,21.92
2018-05-03T02:57:38.051Z,21.88
2018-05-03T02:58:47.738Z,21.82
2018-05-03T02:59:56.915Z,21.83
2018-05-03T03:01:06.335Z,21.92
2018-05-03T03:02:15.893Z,21.91
2018-05-03T03:03:25.429Z,21.91
2018-05-03T03:04:34.863Z,21.84
2018-05-03T03:05:44.277Z,21.9
2018-05-03T03:06:53.713Z,21.86
2018-05-03T03:08:03.391Z,21.9
2018-05-03T03:09:13.074Z,21.88
2018-05-03T03:10:22.750Z,21.88
2018-05-03T03:11:31.926Z,21.9
2018-05-03T03:12:41.605Z,21.86
2018-05-03T03:13:51.034Z,21.86
2018-05-03T03:15:00.253Z,21.86
2018-05-03T03:16:09.408Z,21.84
2018-05-03T03:17:18.556Z,21.92
2018-05-03T03:18:28.213Z,21.92
2018-05-03T03:19:37.369Z,21.92
2018-05-03T03:20:46.810Z,21.98
2018-05-03T03:21:56.328Z,21.86
2018-05-03T03:23:06.047Z,21.91
2018-05-03T03:24:14.937Z,21.92
2018-05-03T03:25:24.350Z,21.79
2018-05-03T03:26:34.025Z,21.92
2018-05-03T03:27:43.703Z,21.9
2018-05-03T03:28:52.857Z,21.9
2018-05-03T03:30:02.279Z,21.92
2018-05-03T03:31:11.970Z,21.79
2018-05-03T03:32:21.679Z,21.98
2018-05-03T03:33:31.124Z,21.83
2018-05-03T03:34:40.547Z,21.92
2018-05-03T03:35:49.962Z,21.83
2018-05-03T03:36:59.623Z,21.88
2018-05-03T03:38:08.510Z,21.83
2018-05-03T03:39:18.241Z,21.86
2018-05-03T03:40:27.419Z,21.9
2018-05-03T03:41:37.099Z,21.84
2018-05-03T03:42:46.006Z,21.84
2018-05-03T03:43:55.664Z,21.86
2018-05-03T03:45:04.841Z,21.83
2018-05-03T03:46:14.521Z,21.92
2018-05-03T03:47:23.675Z,21.86
2018-05-03T03:48:33.122Z,21.8
2018-05-03T03:49:42.328Z,21.83
2018-05-03T03:50:51.773Z,21.86
2018-05-03T03:52:01.452Z,21.88
2018-05-03T03:53:11.234Z,21.9
2018-05-03T03:54:21.082Z,21.9
2018-05-03T03:55:31.019Z,21.9
2018-05-03T03:56:40.702Z,21.86
2018-05-03T03:57:50.126Z,21.9
2018-05-03T03:58:59.891Z,21.82
2018-05-03T04:00:09.012Z,21.86
2018-05-03T04:01:18.692Z,21.9
2018-05-03T04:02:27.840Z,21.77
2018-05-03T04:03:37.270Z,21.79
2018-05-03T04:04:46.690Z,21.77
2018-05-03T04:05:56.097Z,21.8
2018-05-03T04:07:05.765Z,21.83
2018-05-03T04:08:14.915Z,21.84
2018-05-03T04:09:23.825Z,21.91
2018-05-03T04:10:33.502Z,21.9
2018-05-03T04:11:42.917Z,21.82
2018-05-03T04:12:52.076Z,21.77
2018-05-03T04:14:01.769Z,21.74
2018-05-03T04:15:10.656Z,21.84
2018-05-03T04:16:20.326Z,21.84
2018-05-03T04:17:29.498Z,21.75
2018-05-03T04:18:38.914Z,21.9
2018-05-03T04:19:48.601Z,21.84
2018-05-03T04:20:57.760Z,21.83
2018-05-03T04:22:07.713Z,21.92
2018-05-03T04:23:17.208Z,21.82
2018-05-03T04:24:26.900Z,21.86
2018-05-03T04:25:36.100Z,21.9
2018-05-03T04:26:46.120Z,21.84
2018-05-03T04:27:55.788Z,21.9
2018-05-03T04:29:04.418Z,21.74
2018-05-03T04:30:14.106Z,21.92
2018-05-03T04:31:24.044Z,21.84
2018-05-03T04:32:33.458Z,21.92
2018-05-03T04:33:42.881Z,21.74
2018-05-03T04:34:52.816Z,21.77
2018-05-03T04:36:01.508Z,21.83
2018-05-03T04:37:10.929Z,21.82
2018-05-03T04:38:20.409Z,21.84
2018-05-03T04:39:29.838Z,21.8
2018-05-03T04:40:38.750Z,21.75
2018-05-03T04:41:47.918Z,21.88
2018-05-03T04:42:57.332Z,21.92
2018-05-03T04:44:06.761Z,21.82
2018-05-03T04:45:15.943Z,21.75
2018-05-03T04:46:25.360Z,21.74
2018-05-03T04:47:34.800Z,21.82
2018-05-03T04:48:44.237Z,21.74
2018-05-03T04:49:53.128Z,21.9
2018-05-03T04:51:03.049Z,21.83
2018-05-03T04:52:11.691Z,21.74
2018-05-03T04:53:20.861Z,21.75
2018-05-03T04:54:30.539Z,21.91
2018-05-03T04:55:40.234Z,21.83
2018-05-03T04:56:49.900Z,21.72
2018-05-03T04:57:59.571Z,21.69
2018-05-03T04:59:08.985Z,21.74
2018-05-03T05:00:18.404Z,21.84
2018-05-03T05:01:28.076Z,21.91
2018-05-03T05:02:36.972Z,21.9
2018-05-03T05:03:46.893Z,21.74
2018-05-03T05:04:56.314Z,21.91
2018-05-03T05:06:04.949Z,21.83
2018-05-03T05:07:14.097Z,21.92
2018-05-03T05:08:23.520Z,21.84
2018-05-03T05:09:32.425Z,21.92
2018-05-03T05:10:42.276Z,21.86
2018-05-03T05:11:51.708Z,21.9
2018-05-03T05:13:01.367Z,21.84
2018-05-03T05:14:11.070Z,21.83
2018-05-03T05:15:19.962Z,21.9
2018-05-03T05:16:29.651Z,21.8
2018-05-03T05:17:39.068Z,21.92
2018-05-03T05:18:48.221Z,21.94
2018-05-03T05:19:57.908Z,21.92
2018-05-03T05:21:07.154Z,21.88
2018-05-03T05:22:16.553Z,21.96
2018-05-03T05:23:26.011Z,21.84
2018-05-03T05:24:35.421Z,21.94
2018-05-03T05:25:45.093Z,21.88
2018-05-03T05:26:54.493Z,21.88
2018-05-03T05:28:04.157Z,21.88
2018-05-03T05:29:13.072Z,21.84
2018-05-03T05:30:22.493Z,21.9
2018-05-03T05:31:31.469Z,21.88
2018-05-03T05:32:40.878Z,21.84
2018-05-03T05:33:50.547Z,21.94
2018-05-03T05:34:59.458Z,21.9
2018-05-03T05:36:08.629Z,21.91
2018-05-03T05:37:17.791Z,21.94
2018-05-03T05:38:27.657Z,21.86
2018-05-03T05:39:37.123Z,21.91
2018-05-03T05:40:46.287Z,21.91
2018-05-03T05:41:55.465Z,21.82
2018-05-03T05:43:04.869Z,21.9
2018-05-03T05:44:14.316Z,21.9
2018-05-03T05:45:23.942Z,21.91
2018-05-03T05:46:32.843Z,21.82
2018-05-03T05:47:42.092Z,21.82
2018-05-03T05:48:51.543Z,21.9
2018-05-03T05:50:01.230Z,21.92
2018-05-03T05:51:11.168Z,21.9
2018-05-03T05:52:21.057Z,21.92
2018-05-03T05:53:31.005Z,21.91
2018-05-03T05:54:40.170Z,21.84
2018-05-03T05:55:49.330Z,21.92
2018-05-03T05:56:58.537Z,21.84
2018-05-03T05:58:07.739Z,21.79
2018-05-03T05:59:17.404Z,21.72
2018-05-03T06:00:26.569Z,21.84
2018-05-03T06:01:36.252Z,21.82
2018-05-03T06:02:46.026Z,21.84
2018-05-03T06:03:56.053Z,21.79
2018-05-03T06:05:05.207Z,21.74
2018-05-03T06:06:14.626Z,21.83
2018-05-03T06:07:24.543Z,21.75
2018-05-03T06:08:33.695Z,21.77
2018-05-03T06:09:42.580Z,21.74
2018-05-03T06:10:51.750Z,21.75
2018-05-03T06:12:00.938Z,21.77
2018-05-03T06:13:10.606Z,21.83
2018-05-03T06:14:19.755Z,21.86
2018-05-03T06:15:29.280Z,21.82
2018-05-03T06:16:38.793Z,21.9
2018-05-03T06:17:47.950Z,21.77
2018-05-03T06:18:57.394Z,21.9
2018-05-03T06:20:06.909Z,21.75
2018-05-03T06:21:16.587Z,21.92
2018-05-03T06:22:25.776Z,21.83
2018-05-03T06:23:35.460Z,21.82
2018-05-03T06:24:45.142Z,21.9
2018-05-03T06:25:54.362Z,21.86
2018-05-03T06:27:04.160Z,21.84
2018-05-03T06:28:13.610Z,21.88
2018-05-03T06:29:23.283Z,21.96
2018-05-03T06:30:32.453Z,21.9
2018-05-03T06:31:41.617Z,21.94
2018-05-03T06:32:51.295Z,21.82
2018-05-03T06:34:00.727Z,21.92
2018-05-03T06:35:10.237Z,21.91
2018-05-03T06:36:19.659Z,21.92
2018-05-03T06:37:29.066Z,21.91
2018-05-03T06:38:38.522Z,21.9
2018-05-03T06:39:48.188Z,21.91
2018-05-03T06:40:57.679Z,21.92
2018-05-03T06:42:06.835Z,21.9
2018-05-03T06:43:16.332Z,21.91
2018-05-03T06:44:25.790Z,21.82
2018-05-03T06:45:35.221Z,21.86
2018-05-03T06:46:44.647Z,21.96
2018-05-03T06:47:54.362Z,21.86
2018-05-03T06:49:03.565Z,21.91
2018-05-03T06:50:12.780Z,21.88
2018-05-03T06:51:22.204Z,21.86
2018-05-03T06:52:32.262Z,21.9
2018-05-03T06:53:41.993Z,21.88
2018-05-03T06:54:51.421Z,21.92
2018-05-03T06:56:01.100Z,21.88
2018-05-03T06:57:10.809Z,21.9
2018-05-03T06:58:20.237Z,21.91
2018-05-03T06:59:29.675Z,21.94
2018-05-03T07:00:39.403Z,21.84
2018-05-03T07:01:49.100Z,21.94
2018-05-03T07:02:58.781Z,21.92
2018-05-03T07:04:08.032Z,21.92
2018-05-03T07:05:17.988Z,21.9
2018-05-03T07:06:27.683Z,21.91
2018-05-03T07:07:36.888Z,21.94
2018-05-03T07:08:46.304Z,21.94
2018-05-03T07:09:56.143Z,21.96
2018-05-03T07:11:05.926Z,21.91
2018-05-03T07:12:15.604Z,21.9
2018-05-03T07:13:25.318Z,21.86
2018-05-03T07:14:34.745Z,21.99
2018-05-03T07:15:43.720Z,21.98
2018-05-03T07:16:52.652Z,21.86
2018-05-03T07:18:01.853Z,21.99
2018-05-03T07:19:11.303Z,21.98
2018-05-03T07:20:19.966Z,21.92
2018-05-03T07:21:29.415Z,22
2018-05-03T07:22:39.177Z,21.99
2018-05-03T07:23:48.662Z,21.96
2018-05-03T07:24:58.753Z,21.91
2018-05-03T07:26:07.917Z,21.92
2018-05-03T07:27:17.111Z,21.9
2018-05-03T07:28:26.819Z,21.96
2018-05-03T07:29:36.256Z,21.94
2018-05-03T07:30:45.443Z,21.99
2018-05-03T07:31:55.144Z,21.88
2018-05-03T07:33:04.629Z,21.88
2018-05-03T07:34:13.799Z,21.96
2018-05-03T07:35:23.484Z,21.94
2018-05-03T07:36:32.664Z,21.91
2018-05-03T07:37:42.124Z,22
2018-05-03T07:38:51.288Z,21.99
2018-05-03T07:40:00.977Z,21.9
2018-05-03T07:41:10.803Z,22.02
2018-05-03T07:42:19.706Z,22
2018-05-03T07:43:29.392Z,21.94
2018-05-03T07:44:38.560Z,21.99
2018-05-03T07:45:48.004Z,21.99
2018-05-03T07:46:57.792Z,21.84
2018-05-03T07:48:07.321Z,21.91
2018-05-03T07:49:16.482Z,21.96
2018-05-03T07:50:26.416Z,21.94
2018-05-03T07:51:35.584Z,21.86
2018-05-03T07:52:45.031Z,21.94
2018-05-03T07:53:54.208Z,21.98
2018-05-03T07:55:03.631Z,22
2018-05-03T07:56:12.966Z,21.99
2018-05-03T07:57:21.878Z,21.99
2018-05-03T07:58:31.291Z,21.96
2018-05-03T07:59:40.705Z,21.92
2018-05-03T08:00:50.221Z,21.82
2018-05-03T08:01:59.675Z,21.96
2018-05-03T08:03:09.299Z,21.96
2018-05-03T08:04:18.729Z,21.96
2018-05-03T08:05:28.146Z,21.96
2018-05-03T08:06:37.848Z,21.99
2018-05-03T08:07:47.021Z,21.94
2018-05-03T08:08:56.430Z,21.98
2018-05-03T08:10:06.100Z,21.92
2018-05-03T08:11:15.782Z,21.94
2018-05-03T08:12:24.671Z,22.02
2018-05-03T08:13:34.456Z,22.02
2018-05-03T08:14:43.886Z,21.98
2018-05-03T08:15:52.518Z,21.92
2018-05-03T08:17:01.785Z,21.83
2018-05-03T08:18:11.682Z,21.84
2018-05-03T08:19:21.353Z,21.96
2018-05-03T08:20:31.061Z,21.84
2018-05-03T08:21:39.697Z,21.92
2018-05-03T08:22:48.611Z,21.88
2018-05-03T08:23:58.028Z,21.96
2018-05-03T08:25:07.705Z,21.91
2018-05-03T08:26:17.679Z,21.94
2018-05-03T08:27:27.112Z,21.98
2018-05-03T08:28:36.664Z,21.91
2018-05-03T08:29:46.095Z,22
2018-05-03T08:30:55.532Z,21.88
2018-05-03T08:32:05.205Z,21.9
2018-05-03T08:33:14.111Z,22
2018-05-03T08:34:23.606Z,21.88
2018-05-03T08:35:33.032Z,22
2018-05-03T08:36:42.220Z,22.03
2018-05-03T08:37:51.628Z,21.94
2018-05-03T08:39:01.048Z,21.83
2018-05-03T08:40:10.215Z,22.03
2018-05-03T08:41:19.688Z,21.9
2018-05-03T08:42:29.118Z,22.03
2018-05-03T08:43:38.339Z,21.94
2018-05-03T08:44:48.047Z,21.92
2018-05-03T08:45:57.788Z,21.96
2018-05-03T08:47:07.276Z,22.02
2018-05-03T08:48:16.757Z,21.96
2018-05-03T08:49:25.935Z,21.96
2018-05-03T08:50:35.106Z,21.91
2018-05-03T08:51:44.797Z,22.03
2018-05-03T08:52:54.472Z,21.99
2018-05-03T08:54:03.884Z,22.03
2018-05-03T08:55:12.558Z,21.99
2018-05-03T08:56:22.304Z,21.94
2018-05-03T08:57:31.535Z,22.02
2018-05-03T08:58:40.765Z,21.9
2018-05-03T08:59:50.195Z,21.99
2018-05-03T09:00:59.978Z,22
2018-05-03T09:02:09.719Z,21.96
2018-05-03T09:03:19.417Z,21.99
2018-05-03T09:04:29.090Z,22
2018-05-03T09:05:38.801Z,22.05
2018-05-03T09:06:47.962Z,22.02
2018-05-03T09:07:57.406Z,22.02
2018-05-03T09:09:06.825Z,21.96
2018-05-03T09:10:16.510Z,21.94
2018-05-03T09:11:25.678Z,22
2018-05-03T09:12:35.374Z,22
2018-05-03T09:13:44.796Z,22.02
2018-05-03T09:14:54.247Z,21.96
2018-05-03T09:16:03.952Z,22.02
2018-05-03T09:17:13.115Z,21.96
2018-05-03T09:18:22.306Z,22.02
2018-05-03T09:19:31.495Z,22.02
2018-05-03T09:20:40.429Z,21.96
2018-05-03T09:21:50.096Z,21.92
2018-05-03T09:22:59.534Z,21.99
2018-05-03T09:24:08.746Z,21.98
2018-05-03T09:25:18.178Z,21.96
2018-05-03T09:26:27.061Z,22
2018-05-03T09:27:36.227Z,21.96
2018-05-03T09:28:45.374Z,21.96
2018-05-03T09:29:54.554Z,21.98
2018-05-03T09:31:03.745Z,21.98
2018-05-03T09:32:12.996Z,21.99
2018-05-03T09:33:21.912Z,21.94
2018-05-03T09:34:31.080Z,22
2018-05-03T09:35:40.749Z,21.96
2018-05-03T09:36:50.161Z,21.99
2018-05-03T09:37:59.574Z,22
2018-05-03T09:39:09.137Z,21.98
2018-05-03T09:40:18.811Z,22
2018-05-03T09:41:27.970Z,22.02
2018-05-03T09:42:37.848Z,21.99
2018-05-03T09:43:47.279Z,22
2018-05-03T09:44:56.211Z,21.94
2018-05-03T09:46:05.662Z,21.94
2018-05-03T09:47:15.066Z,21.94
2018-05-03T09:48:24.776Z,21.99
2018-05-03T09:49:34.198Z,21.96
2018-05-03T09:50:43.655Z,21.99
2018-05-03T09:51:53.328Z,21.98
2018-05-03T09:53:03.028Z,22
2018-05-03T09:54:12.739Z,21.98
2018-05-03T09:55:22.447Z,22.02
2018-05-03T09:56:31.625Z,21.98
2018-05-03T09:57:41.045Z,21.99
2018-05-03T09:58:50.450Z,22
2018-05-03T10:00:00.128Z,21.98
2018-05-03T10:01:09.567Z,21.99
2018-05-03T10:02:19.244Z,21.96
2018-05-03T10:03:28.672Z,22.02
2018-05-03T10:04:38.625Z,21.91
2018-05-03T10:05:48.139Z,22.09
2018-05-03T10:06:57.321Z,21.99
2018-05-03T10:08:06.740Z,22
2018-05-03T10:09:16.428Z,22.03
2018-05-03T10:10:25.623Z,21.96
2018-05-03T10:11:35.052Z,21.96
2018-05-03T10:12:44.481Z,21.98
2018-05-03T10:13:53.908Z,22.07
2018-05-03T10:15:02.797Z,22.02
2018-05-03T10:16:11.978Z,21.96
2018-05-03T10:17:21.138Z,21.99
2018-05-03T10:18:30.569Z,21.96
2018-05-03T10:19:39.733Z,22
2018-05-03T10:20:49.141Z,21.99
2018-05-03T10:21:58.559Z,21.99
2018-05-03T10:23:08.028Z,21.96
2018-05-03T10:24:17.187Z,21.98
2018-05-03T10:25:26.111Z,21.92
2018-05-03T10:26:35.278Z,22.12
2018-05-03T10:27:44.485Z,22.1
2018-05-03T10:28:53.737Z,21.99
2018-05-03T10:30:03.081Z,22
2018-05-03T10:31:13.343Z,22
2018-05-03T10:32:22.255Z,21.99
2018-05-03T10:33:31.945Z,21.99
2018-05-03T10:34:41.371Z,21.98
2018-05-03T10:35:50.809Z,21.94
2018-05-03T10:37:00.365Z,21.98
2018-05-03T10:38:09.798Z,22.09
2018-05-03T10:39:19.793Z,22.07
2018-05-03T10:40:28.971Z,21.98
2018-05-03T10:41:38.162Z,22.02
2018-05-03T10:42:47.873Z,22.02
2018-05-03T10:43:57.582Z,22
2018-05-03T10:45:07.083Z,21.96
2018-05-03T10:46:16.537Z,22.02
2018-05-03T10:47:25.953Z,21.99
2018-05-03T10:48:34.936Z,21.96
2018-05-03T10:49:44.529Z,22
2018-05-03T10:50:53.713Z,21.94
2018-05-03T10:52:03.156Z,21.96
2018-05-03T10:53:12.568Z,22.05
2018-05-03T10:54:22.018Z,21.98
2018-05-03T10:55:31.448Z,22.06
2018-05-03T10:56:40.346Z,22.02
2018-05-03T10:57:49.559Z,22.05
2018-05-03T10:58:58.709Z,21.96
2018-05-03T11:00:08.144Z,21.94
2018-05-03T11:01:17.625Z,22.02
2018-05-03T11:02:27.344Z,21.99
2018-05-03T11:03:36.514Z,22.07
2018-05-03T11:04:46.438Z,22.07
2018-05-03T11:05:55.855Z,22.07
2018-05-03T11:07:05.603Z,22.07
2018-05-03T11:08:14.766Z,22.03
2018-05-03T11:09:24.222Z,22.09
2018-05-03T11:10:33.649Z,22.1
2018-05-03T11:11:42.564Z,22.09
2018-05-03T11:12:51.726Z,22.1
2018-05-03T11:14:00.891Z,22.05
2018-05-03T11:15:10.305Z,22.02
2018-05-03T11:16:20.012Z,22.1
2018-05-03T11:17:29.693Z,22.06
2018-05-03T11:18:38.859Z,22.03
2018-05-03T11:19:48.028Z,22.02
2018-05-03T11:20:57.220Z,22.05
2018-05-03T11:22:06.941Z,22.02
2018-05-03T11:23:16.388Z,22.05
2018-05-03T11:24:25.615Z,22.1
2018-05-03T11:25:35.582Z,22.03
2018-05-03T11:26:45.514Z,22.05
2018-05-03T11:27:54.941Z,22.09
2018-05-03T11:29:04.379Z,22.14
2018-05-03T11:30:13.556Z,22.05
2018-05-03T11:31:22.726Z,22.12
2018-05-03T11:32:32.187Z,22.07
2018-05-03T11:33:41.860Z,22.05
2018-05-03T11:34:51.549Z,22.09
2018-05-03T11:36:01.242Z,22.05
2018-05-03T11:37:10.918Z,22.09
2018-05-03T11:38:20.592Z,22.07
2018-05-03T11:39:30.112Z,22.09
2018-05-03T11:40:39.305Z,22.05
2018-05-03T11:41:49.276Z,22.1
2018-05-03T11:42:58.184Z,21.99
2018-05-03T11:44:07.949Z,22.06
2018-05-03T11:45:17.118Z,22.03
2018-05-03T11:46:26.061Z,22.09
2018-05-03T11:47:35.253Z,22.09
2018-05-03T11:48:43.944Z,22.1
2018-05-03T11:49:54.115Z,22.12
2018-05-03T11:51:03.544Z,22.02
2018-05-03T11:52:12.239Z,22.09
2018-05-03T11:53:21.675Z,22.03
2018-05-03T11:54:31.154Z,22.03
2018-05-03T11:55:40.586Z,22.09
2018-05-03T11:56:50.246Z,22.09
2018-05-03T11:57:59.412Z,22.09
2018-05-03T11:59:08.964Z,22.12
2018-05-03T12:00:18.247Z,22.12
2018-05-03T12:01:27.427Z,22.12
2018-05-03T12:02:37.224Z,22.07
2018-05-03T12:03:46.381Z,22.05
2018-05-03T12:04:55.541Z,22.14
2018-05-03T12:06:05.138Z,22.07
2018-05-03T12:07:14.979Z,22.06
2018-05-03T12:08:24.677Z,22.14
2018-05-03T12:09:34.107Z,22.12
2018-05-03T12:10:44.047Z,22.06
2018-05-03T12:11:53.647Z,22.03
2018-05-03T12:13:03.348Z,22.12
2018-05-03T12:14:12.531Z,22.07
2018-05-03T12:15:21.183Z,22.06
2018-05-03T12:16:30.869Z,22.05
2018-05-03T12:17:40.305Z,22.06
2018-05-03T12:18:49.527Z,22.03
2018-05-03T12:19:59.011Z,22.05
2018-05-03T12:21:08.170Z,22.06
2018-05-03T12:22:17.584Z,22.1
2018-05-03T12:23:26.480Z,22.05
2018-05-03T12:24:36.153Z,22.06
2018-05-03T12:25:45.823Z,22.07
2018-05-03T12:26:55.258Z,22.06
2018-05-03T12:28:04.663Z,22.02
2018-05-03T12:29:13.862Z,22.1
2018-05-03T12:30:23.553Z,22.05
2018-05-03T12:31:33.230Z,22.09
2018-05-03T12:32:42.910Z,22.03
2018-05-03T12:33:52.624Z,22.07
2018-05-03T12:35:02.152Z,22.07
2018-05-03T12:36:12.351Z,22.05
2018-05-03T12:37:22.208Z,22.07
2018-05-03T12:38:31.105Z,22.07
2018-05-03T12:39:40.287Z,22.06
2018-05-03T12:40:49.456Z,22.09
2018-05-03T12:41:58.873Z,22.06
2018-05-03T12:43:08.048Z,22.06
2018-05-03T12:44:17.252Z,22.03
2018-05-03T12:45:26.706Z,22.12
2018-05-03T12:46:35.857Z,22.03
2018-05-03T12:47:45.525Z,22.1
2018-05-03T12:48:54.950Z,22.02
2018-05-03T12:50:04.124Z,22.09
2018-05-03T12:51:13.798Z,22.06
2018-05-03T12:52:22.941Z,22.03
2018-05-03T12:53:32.891Z,22.1
2018-05-03T12:54:42.584Z,22.09
2018-05-03T12:55:51.991Z,22.05
2018-05-03T12:57:02.742Z,22.06
2018-05-03T12:58:14.698Z,22.09
2018-05-03T12:59:25.221Z,22
2018-05-03T13:00:35.108Z,21.99
2018-05-03T13:01:44.540Z,22.06
2018-05-03T13:02:53.716Z,22.15
2018-05-03T13:04:02.878Z,22.14
2018-05-03T13:05:12.044Z,22.03
2018-05-03T13:06:20.688Z,22.07
2018-05-03T13:07:30.376Z,22.05
2018-05-03T13:08:39.295Z,22.14
2018-05-03T13:09:49.251Z,22.09
2018-05-03T13:10:58.668Z,22.02
2018-05-03T13:12:07.825Z,22.14
2018-05-03T13:13:17.511Z,22.05
2018-05-03T13:14:27.017Z,22.05
2018-05-03T13:15:36.185Z,22.1
2018-05-03T13:16:45.351Z,22.05
2018-05-03T13:17:54.804Z,22.05
2018-05-03T13:19:04.760Z,22.06
2018-05-03T13:20:14.739Z,22.02
2018-05-03T13:21:24.300Z,22.14
2018-05-03T13:22:33.465Z,22.09
2018-05-03T13:23:42.989Z,22.1
2018-05-03T13:24:52.417Z,22.09
2018-05-03T13:26:01.900Z,22.09
2018-05-03T13:27:11.090Z,22.07
2018-05-03T13:28:20.800Z,22.12
2018-05-03T13:29:30.487Z,22.05
2018-05-03T13:30:39.126Z,22.09
2018-05-03T13:31:48.316Z,22.02
2018-05-03T13:32:57.772Z,22.06
2018-05-03T13:34:06.681Z,22.05
2018-05-03T13:35:16.630Z,22.07
2018-05-03T13:36:26.209Z,22.12
2018-05-03T13:37:35.319Z,22.15
2018-05-03T13:38:44.843Z,22.1
2018-05-03T13:39:54.321Z,22.03
2018-05-03T13:41:03.766Z,22.14
2018-05-03T13:42:13.512Z,22.17
2018-05-03T13:43:22.796Z,22.14
2018-05-03T13:44:31.793Z,22.17
2018-05-03T13:45:41.851Z,22.24
2018-05-03T13:46:51.345Z,22.24
2018-05-03T13:48:01.378Z,22.22
2018-05-03T13:49:10.377Z,22.2
2018-05-03T13:50:19.604Z,22.2
2018-05-03T13:51:28.526Z,22.22
2018-05-03T13:52:37.690Z,22.2
2018-05-03T13:53:46.590Z,22.24
2018-05-03T13:54:55.726Z,22.2
2018-05-03T13:56:05.038Z,22.22
2018-05-03T13:57:14.746Z,22.2
2018-05-03T13:58:24.440Z,22.28
2018-05-03T13:59:33.672Z,22.3
2018-05-03T14:00:43.441Z,22.21
2018-05-03T14:01:53.364Z,22.27
2018-05-03T14:03:02.804Z,22.22
2018-05-03T14:04:12.246Z,22.24
2018-05-03T14:05:21.997Z,22.3
2018-05-03T14:06:31.230Z,22.21
2018-05-03T14:07:40.645Z,22.33
2018-05-03T14:08:50.617Z,22.33
2018-05-03T14:10:00.073Z,22.25
2018-05-03T14:11:09.482Z,22.35
2018-05-03T14:12:18.916Z,22.27
2018-05-03T14:13:28.593Z,22.28
2018-05-03T14:14:38.540Z,22.27
2018-05-03T14:15:48.237Z,22.3
2018-05-03T14:16:57.665Z,22.31
2018-05-03T14:18:06.835Z,22.31
2018-05-03T14:19:16.149Z,22.31
2018-05-03T14:20:26.066Z,22.28
2018-05-03T14:21:35.513Z,22.31
2018-05-03T14:22:44.669Z,22.3
2018-05-03T14:23:54.521Z,22.25
2018-05-03T14:25:03.693Z,22.28
2018-05-03T14:26:12.863Z,22.31
2018-05-03T14:27:22.539Z,22.31
2018-05-03T14:28:31.181Z,22.37
2018-05-03T14:29:40.606Z,22.31
2018-05-03T14:30:50.313Z,22.31
2018-05-03T14:32:00.027Z,22.3
2018-05-03T14:33:09.485Z,22.3
2018-05-03T14:34:18.635Z,22.33
2018-05-03T14:35:27.806Z,22.4
2018-05-03T14:36:37.468Z,22.31
2018-05-03T14:37:46.885Z,22.36
2018-05-03T14:38:56.862Z,22.37
2018-05-03T14:40:06.800Z,22.35
2018-05-03T14:41:16.465Z,22.35
2018-05-03T14:42:26.214Z,22.33
2018-05-03T14:43:35.634Z,22.33
2018-05-03T14:44:44.806Z,22.35
2018-05-03T14:45:54.242Z,22.31
2018-05-03T14:47:03.673Z,22.33
2018-05-03T14:48:13.369Z,22.42
2018-05-03T14:49:22.849Z,22.35
2018-05-03T14:50:32.589Z,22.33
2018-05-03T14:51:42.286Z,22.37
2018-05-03T14:52:51.712Z,22.31
2018-05-03T14:54:01.129Z,22.35
2018-05-03T14:55:10.384Z,22.39
2018-05-03T14:56:20.182Z,22.39
2018-05-03T14:57:29.941Z,22.33
2018-05-03T14:58:39.693Z,22.39
2018-05-03T14:59:49.372Z,22.31
2018-05-03T15:00:59.143Z,22.3